BLY934D EGGP-LFBE
Flight info
| Callsign | BLY934D |
|---|---|
| Flight time | 1h 30m |
| Altitude | 35000 |
| Route | NANTI L8 HON UN859 SOPIL DCT MAKOX DCT BUGUS |
| Aircraft | A319/M-SDE3FGHIRWY/LB1 |
Departure
| Time | 2026-04-21 12:38 |
|---|---|
| Airport | Liverpool John Lennon Airport (EGGP) |
Arrival
| Time | 2026-04-21 14:08 |
|---|---|
| Airport | Bergerac Dordogne-Périgord airport (LFBE) |
| Time | Latitude | Longitude | Altitude | Speed | Heading |
|---|---|---|---|---|---|
| 2026-04-21 12:06 | 53.33559 | -2.85589 | 86 ft | 0 kts | 175° |
| 2026-04-21 12:30 | 53.33570 | -2.85590 | 89 ft | 3 kts | 177° |
| 2026-04-21 12:31 | 53.33589 | -2.85592 | 85 ft | 3 kts | 181° |
| 2026-04-21 12:31 | 53.33605 | -2.85587 | 87 ft | 3 kts | 232° |
| 2026-04-21 12:31 | 53.33612 | -2.85562 | 86 ft | 2 kts | 265° |
| 2026-04-21 12:31 | 53.33612 | -2.85551 | 86 ft | 2 kts | 265° |
| 2026-04-21 12:32 | 53.33613 | -2.85527 | 88 ft | 1 kts | 265° |
| 2026-04-21 12:32 | 53.33613 | -2.85525 | 88 ft | 0 kts | 265° |
| 2026-04-21 12:34 | 53.33612 | -2.85549 | 86 ft | 8 kts | 265° |
| 2026-04-21 12:34 | 53.33607 | -2.85661 | 87 ft | 10 kts | 265° |
| 2026-04-21 12:35 | 53.33602 | -2.85781 | 85 ft | 11 kts | 265° |
| 2026-04-21 12:35 | 53.33596 | -2.85907 | 90 ft | 11 kts | 265° |
| 2026-04-21 12:35 | 53.33594 | -2.86035 | 88 ft | 11 kts | 268° |
| 2026-04-21 12:35 | 53.33588 | -2.86168 | 85 ft | 12 kts | 265° |
| 2026-04-21 12:36 | 53.33561 | -2.86288 | 87 ft | 12 kts | 221° |
| 2026-04-21 12:36 | 53.33486 | -2.86314 | 85 ft | 11 kts | 180° |
| 2026-04-21 12:36 | 53.33462 | -2.86428 | 84 ft | 12 kts | 266° |
| 2026-04-21 12:36 | 53.33456 | -2.86584 | 70 ft | 16 kts | 265° |
| 2026-04-21 12:37 | 53.33396 | -2.86731 | 76 ft | 16 kts | 195° |
| 2026-04-21 12:37 | 53.33299 | -2.86665 | 77 ft | 14 kts | 134° |
| 2026-04-21 12:37 | 53.33293 | -2.86475 | 74 ft | 27 kts | 84° |
| 2026-04-21 12:37 | 53.33328 | -2.85732 | 81 ft | 98 kts | 86° |
| 2026-04-21 12:38 | 53.33393 | -2.84286 | 204 ft | 140 kts | 86° |
| 2026-04-21 12:38 | 53.33474 | -2.82707 | 964 ft | 132 kts | 85° |
| 2026-04-21 12:38 | 53.33558 | -2.81205 | 1735 ft | 129 kts | 85° |
| 2026-04-21 12:38 | 53.33592 | -2.79646 | 2206 ft | 145 kts | 98° |
| 2026-04-21 12:39 | 53.33062 | -2.78054 | 2515 ft | 176 kts | 131° |
| 2026-04-21 12:39 | 53.31986 | -2.76816 | 2889 ft | 198 kts | 141° |
| 2026-04-21 12:39 | 53.30770 | -2.75499 | 3276 ft | 221 kts | 142° |
| 2026-04-21 12:39 | 53.29409 | -2.74027 | 3788 ft | 243 kts | 142° |
| 2026-04-21 12:40 | 53.27965 | -2.72474 | 3964 ft | 248 kts | 143° |
| 2026-04-21 12:40 | 53.26512 | -2.70923 | 4003 ft | 248 kts | 142° |
| 2026-04-21 12:40 | 53.25059 | -2.69371 | 4006 ft | 248 kts | 142° |
| 2026-04-21 12:40 | 53.23609 | -2.67820 | 4005 ft | 246 kts | 142° |
| 2026-04-21 12:41 | 53.22172 | -2.66282 | 4010 ft | 246 kts | 142° |
| 2026-04-21 12:41 | 53.20711 | -2.64711 | 4001 ft | 247 kts | 142° |
| 2026-04-21 12:41 | 53.19269 | -2.63157 | 4000 ft | 247 kts | 142° |
| 2026-04-21 12:41 | 53.17827 | -2.61585 | 4001 ft | 248 kts | 141° |
| 2026-04-21 12:42 | 53.16412 | -2.59948 | 4000 ft | 247 kts | 140° |
| 2026-04-21 12:42 | 53.15013 | -2.58282 | 4001 ft | 247 kts | 139° |
| 2026-04-21 12:42 | 53.13617 | -2.56610 | 3999 ft | 247 kts | 139° |
| 2026-04-21 12:42 | 53.12199 | -2.54909 | 4444 ft | 255 kts | 139° |
| 2026-04-21 12:43 | 53.10785 | -2.53224 | 5685 ft | 247 kts | 140° |
| 2026-04-21 12:43 | 53.09387 | -2.51561 | 6710 ft | 248 kts | 141° |
| 2026-04-21 12:43 | 53.07967 | -2.49874 | 7580 ft | 253 kts | 141° |
| 2026-04-21 12:43 | 53.06530 | -2.48169 | 8449 ft | 256 kts | 141° |
| 2026-04-21 12:44 | 53.05072 | -2.46448 | 9357 ft | 258 kts | 141° |
| 2026-04-21 12:44 | 53.03592 | -2.44706 | 10175 ft | 265 kts | 142° |
| 2026-04-21 12:44 | 53.02058 | -2.42899 | 10736 ft | 279 kts | 142° |
| 2026-04-21 12:44 | 53.00409 | -2.40956 | 11006 ft | 302 kts | 142° |
| 2026-04-21 12:45 | 52.98660 | -2.38903 | 11582 ft | 312 kts | 142° |
| 2026-04-21 12:45 | 52.96877 | -2.36816 | 12417 ft | 314 kts | 142° |
| 2026-04-21 12:45 | 52.95075 | -2.34713 | 13160 ft | 319 kts | 142° |
| 2026-04-21 12:45 | 52.93252 | -2.32590 | 13970 ft | 321 kts | 142° |
| 2026-04-21 12:46 | 52.91411 | -2.30444 | 14656 ft | 326 kts | 143° |
| 2026-04-21 12:46 | 52.89536 | -2.28260 | 15219 ft | 333 kts | 143° |
| 2026-04-21 12:46 | 52.87608 | -2.26016 | 15932 ft | 334 kts | 143° |
| 2026-04-21 12:46 | 52.85698 | -2.23793 | 16640 ft | 336 kts | 142° |
| 2026-04-21 12:47 | 52.83787 | -2.21569 | 17375 ft | 338 kts | 143° |
| 2026-04-21 12:47 | 52.81843 | -2.19307 | 17927 ft | 344 kts | 143° |
| 2026-04-21 12:47 | 52.79873 | -2.17015 | 18544 ft | 349 kts | 143° |
| 2026-04-21 12:47 | 52.77875 | -2.14697 | 19103 ft | 353 kts | 144° |
| 2026-04-21 12:48 | 52.75850 | -2.12347 | 19578 ft | 359 kts | 144° |
| 2026-04-21 12:48 | 52.73784 | -2.09957 | 20002 ft | 367 kts | 144° |
| 2026-04-21 12:48 | 52.71667 | -2.07513 | 20358 ft | 376 kts | 144° |
| 2026-04-21 12:48 | 52.69505 | -2.05022 | 20812 ft | 382 kts | 144° |
| 2026-04-21 12:49 | 52.67310 | -2.02491 | 21262 ft | 389 kts | 144° |
| 2026-04-21 12:49 | 52.65079 | -1.99921 | 21716 ft | 395 kts | 144° |
| 2026-04-21 12:49 | 52.62819 | -1.97320 | 22247 ft | 398 kts | 145° |
| 2026-04-21 12:49 | 52.60528 | -1.94689 | 22716 ft | 404 kts | 145° |
| 2026-04-21 12:50 | 52.58210 | -1.92036 | 23168 ft | 409 kts | 145° |
| 2026-04-21 12:50 | 52.55853 | -1.89343 | 23613 ft | 415 kts | 145° |
| 2026-04-21 12:50 | 52.53467 | -1.86613 | 24038 ft | 421 kts | 145° |
| 2026-04-21 12:50 | 52.51051 | -1.83854 | 24406 ft | 426 kts | 146° |
| 2026-04-21 12:51 | 52.48599 | -1.81056 | 24680 ft | 433 kts | 146° |
| 2026-04-21 12:51 | 52.46104 | -1.78215 | 25015 ft | 439 kts | 146° |
| 2026-04-21 12:51 | 52.43587 | -1.75355 | 25375 ft | 443 kts | 147° |
| 2026-04-21 12:51 | 52.41041 | -1.72463 | 25742 ft | 447 kts | 147° |
| 2026-04-21 12:52 | 52.38474 | -1.69551 | 26105 ft | 451 kts | 147° |
| 2026-04-21 12:52 | 52.35750 | -1.66855 | 26470 ft | 452 kts | 156° |
| 2026-04-21 12:52 | 52.32892 | -1.64907 | 26819 ft | 452 kts | 166° |
| 2026-04-21 12:52 | 52.29886 | -1.63349 | 27166 ft | 455 kts | 166° |
| 2026-04-21 12:53 | 52.26827 | -1.61765 | 27540 ft | 458 kts | 167° |
| 2026-04-21 12:53 | 52.23774 | -1.60179 | 27872 ft | 462 kts | 167° |
| 2026-04-21 12:53 | 52.20696 | -1.58577 | 28235 ft | 465 kts | 167° |
| 2026-04-21 12:53 | 52.17604 | -1.56967 | 28607 ft | 468 kts | 167° |
| 2026-04-21 12:54 | 52.14491 | -1.55345 | 28972 ft | 471 kts | 167° |
| 2026-04-21 12:54 | 52.11358 | -1.53720 | 29332 ft | 474 kts | 167° |
| 2026-04-21 12:54 | 52.08204 | -1.52087 | 29683 ft | 477 kts | 167° |
| 2026-04-21 12:54 | 52.05034 | -1.50449 | 30026 ft | 480 kts | 168° |
| 2026-04-21 12:55 | 52.01839 | -1.48803 | 30314 ft | 482 kts | 168° |
| 2026-04-21 12:55 | 51.98628 | -1.47153 | 30618 ft | 485 kts | 168° |
| 2026-04-21 12:55 | 51.95410 | -1.45501 | 30900 ft | 488 kts | 168° |
| 2026-04-21 12:55 | 51.92163 | -1.43840 | 31150 ft | 490 kts | 167° |
| 2026-04-21 12:56 | 51.88905 | -1.42173 | 31432 ft | 492 kts | 167° |
| 2026-04-21 12:56 | 51.85629 | -1.40491 | 31723 ft | 494 kts | 167° |
| 2026-04-21 12:56 | 51.82357 | -1.38806 | 32108 ft | 493 kts | 167° |
| 2026-04-21 12:56 | 51.79090 | -1.37125 | 32506 ft | 491 kts | 167° |
| 2026-04-21 12:57 | 51.75841 | -1.35461 | 32952 ft | 489 kts | 167° |
| 2026-04-21 12:57 | 51.72601 | -1.33810 | 33381 ft | 487 kts | 167° |
| 2026-04-21 12:57 | 51.69373 | -1.32173 | 33802 ft | 486 kts | 167° |
| 2026-04-21 12:57 | 51.66155 | -1.30545 | 34197 ft | 484 kts | 167° |
| 2026-04-21 12:58 | 51.62899 | -1.28901 | 34560 ft | 483 kts | 167° |
| 2026-04-21 12:58 | 51.59739 | -1.27302 | 34917 ft | 481 kts | 167° |
| 2026-04-21 12:58 | 51.56514 | -1.25669 | 35204 ft | 480 kts | 166° |
| 2026-04-21 12:59 | 51.50204 | -1.22477 | 35303 ft | 470 kts | 165° |
| 2026-04-21 12:59 | 51.44233 | -1.18347 | 35302 ft | 471 kts | 159° |
| 2026-04-21 13:00 | 51.38244 | -1.13942 | 35299 ft | 471 kts | 159° |
| 2026-04-21 13:00 | 51.32290 | -1.09567 | 35282 ft | 470 kts | 159° |
| 2026-04-21 13:01 | 51.26349 | -1.05221 | 35304 ft | 469 kts | 159° |
| 2026-04-21 13:01 | 51.20417 | -1.00894 | 35304 ft | 468 kts | 159° |
| 2026-04-21 13:02 | 51.14494 | -0.96576 | 35300 ft | 468 kts | 159° |
| 2026-04-21 13:02 | 51.05600 | -0.90134 | 35280 ft | 469 kts | 159° |
| 2026-04-21 13:03 | 50.99653 | -0.85829 | 35271 ft | 470 kts | 159° |
| 2026-04-21 13:03 | 50.94665 | -0.82233 | 35264 ft | 470 kts | 159° |
| 2026-04-21 13:04 | 50.88696 | -0.77957 | 35264 ft | 471 kts | 159° |
| 2026-04-21 13:04 | 50.82914 | -0.73047 | 35265 ft | 474 kts | 150° |
| 2026-04-21 13:05 | 50.77373 | -0.67396 | 35270 ft | 474 kts | 149° |
| 2026-04-21 13:05 | 50.71833 | -0.61742 | 35276 ft | 474 kts | 149° |
| 2026-04-21 13:06 | 50.66292 | -0.56117 | 35278 ft | 474 kts | 150° |
| 2026-04-21 13:06 | 50.60745 | -0.50515 | 35266 ft | 473 kts | 150° |
| 2026-04-21 13:07 | 50.55200 | -0.44944 | 35267 ft | 472 kts | 150° |
| 2026-04-21 13:07 | 50.49669 | -0.39389 | 35269 ft | 472 kts | 150° |
| 2026-04-21 13:08 | 50.44142 | -0.33846 | 35269 ft | 471 kts | 150° |
| 2026-04-21 13:08 | 50.38606 | -0.28325 | 35261 ft | 471 kts | 150° |
| 2026-04-21 13:09 | 50.33080 | -0.22825 | 35270 ft | 470 kts | 150° |
| 2026-04-21 13:09 | 50.27555 | -0.17338 | 35265 ft | 470 kts | 150° |
| 2026-04-21 13:10 | 50.22038 | -0.11868 | 35262 ft | 470 kts | 150° |
| 2026-04-21 13:10 | 50.16483 | -0.06384 | 35248 ft | 469 kts | 150° |
| 2026-04-21 13:11 | 50.10920 | -0.01134 | 35263 ft | 465 kts | 158° |
| 2026-04-21 13:11 | 50.04850 | 0.02031 | 35253 ft | 459 kts | 170° |
| 2026-04-21 13:12 | 49.98648 | 0.04465 | 35238 ft | 460 kts | 170° |
| 2026-04-21 13:12 | 49.92446 | 0.06903 | 35215 ft | 460 kts | 170° |
| 2026-04-21 13:13 | 49.86242 | 0.09335 | 35220 ft | 460 kts | 170° |
| 2026-04-21 13:13 | 49.80043 | 0.11760 | 35215 ft | 459 kts | 170° |
| 2026-04-21 13:14 | 49.73850 | 0.14181 | 35204 ft | 459 kts | 170° |
| 2026-04-21 13:14 | 49.67655 | 0.16590 | 35204 ft | 459 kts | 170° |
| 2026-04-21 13:15 | 49.61478 | 0.19055 | 35207 ft | 458 kts | 169° |
| 2026-04-21 13:15 | 49.55317 | 0.21567 | 35208 ft | 458 kts | 169° |
| 2026-04-21 13:16 | 49.49156 | 0.24058 | 35191 ft | 457 kts | 169° |
| 2026-04-21 13:16 | 49.43006 | 0.26525 | 35174 ft | 456 kts | 170° |
| 2026-04-21 13:17 | 49.36862 | 0.28976 | 35175 ft | 456 kts | 170° |
| 2026-04-21 13:17 | 49.30718 | 0.31410 | 35175 ft | 456 kts | 170° |
| 2026-04-21 13:18 | 49.24588 | 0.33938 | 35165 ft | 456 kts | 169° |
| 2026-04-21 13:18 | 49.18433 | 0.36578 | 35153 ft | 456 kts | 169° |
| 2026-04-21 13:19 | 49.12318 | 0.39172 | 35150 ft | 456 kts | 169° |
| 2026-04-21 13:19 | 49.06197 | 0.41737 | 35133 ft | 456 kts | 169° |
| 2026-04-21 13:20 | 49.00076 | 0.44292 | 35159 ft | 456 kts | 169° |
| 2026-04-21 13:20 | 48.93946 | 0.46835 | 35153 ft | 457 kts | 169° |
| 2026-04-21 13:21 | 48.87814 | 0.49377 | 35148 ft | 457 kts | 169° |
| 2026-04-21 13:21 | 48.81678 | 0.51931 | 35142 ft | 457 kts | 169° |
| 2026-04-21 13:22 | 48.75542 | 0.54460 | 35145 ft | 457 kts | 169° |
| 2026-04-21 13:22 | 48.69391 | 0.56861 | 35143 ft | 457 kts | 170° |
| 2026-04-21 13:23 | 48.63225 | 0.59231 | 35123 ft | 457 kts | 170° |
| 2026-04-21 13:23 | 48.57069 | 0.61625 | 35131 ft | 457 kts | 170° |
| 2026-04-21 13:24 | 48.50875 | 0.64056 | 35132 ft | 457 kts | 170° |
| 2026-04-21 13:24 | 48.44723 | 0.66549 | 35135 ft | 458 kts | 169° |
| 2026-04-21 13:25 | 48.38576 | 0.69077 | 35114 ft | 458 kts | 169° |
| 2026-04-21 13:25 | 48.32419 | 0.71591 | 35120 ft | 458 kts | 169° |
| 2026-04-21 13:26 | 48.26260 | 0.74069 | 35125 ft | 459 kts | 170° |
| 2026-04-21 13:26 | 48.20089 | 0.76528 | 35099 ft | 459 kts | 170° |
| 2026-04-21 13:27 | 48.13918 | 0.78942 | 35108 ft | 459 kts | 171° |
| 2026-04-21 13:27 | 48.07738 | 0.81362 | 35110 ft | 459 kts | 170° |
| 2026-04-21 13:28 | 48.01555 | 0.83778 | 35110 ft | 459 kts | 170° |
| 2026-04-21 13:28 | 47.95370 | 0.86195 | 35109 ft | 459 kts | 170° |
| 2026-04-21 13:29 | 47.89186 | 0.88604 | 35100 ft | 459 kts | 171° |
| 2026-04-21 13:29 | 47.83003 | 0.91000 | 35104 ft | 460 kts | 171° |
| 2026-04-21 13:30 | 47.76808 | 0.93398 | 35078 ft | 460 kts | 171° |
| 2026-04-21 13:30 | 47.70569 | 0.95812 | 35080 ft | 460 kts | 171° |
| 2026-04-21 13:31 | 47.64369 | 0.98200 | 35090 ft | 460 kts | 171° |
| 2026-04-21 13:31 | 47.58173 | 1.00583 | 35073 ft | 460 kts | 171° |
| 2026-04-21 13:32 | 47.51977 | 1.02968 | 35081 ft | 460 kts | 171° |
| 2026-04-21 13:32 | 47.45783 | 1.05348 | 35080 ft | 459 kts | 171° |
| 2026-04-21 13:33 | 47.39554 | 1.06365 | 35080 ft | 446 kts | 188° |
| 2026-04-21 13:33 | 47.33354 | 1.06198 | 35066 ft | 445 kts | 187° |
| 2026-04-21 13:34 | 47.27150 | 1.06063 | 35068 ft | 445 kts | 187° |
| 2026-04-21 13:34 | 47.20959 | 1.05932 | 35070 ft | 445 kts | 187° |
| 2026-04-21 13:35 | 47.14764 | 1.05795 | 35057 ft | 444 kts | 187° |
| 2026-04-21 13:35 | 47.08589 | 1.05644 | 35061 ft | 444 kts | 187° |
| 2026-04-21 13:36 | 47.03458 | 1.05524 | 35060 ft | 444 kts | 187° |
| 2026-04-21 13:36 | 46.97254 | 1.06092 | 35061 ft | 447 kts | 181° |
| 2026-04-21 13:37 | 46.91007 | 1.06790 | 35045 ft | 447 kts | 181° |
| 2026-04-21 13:37 | 46.84813 | 1.07481 | 35050 ft | 446 kts | 181° |
| 2026-04-21 13:38 | 46.78623 | 1.08175 | 35046 ft | 446 kts | 181° |
| 2026-04-21 13:38 | 46.72442 | 1.08854 | 35041 ft | 445 kts | 181° |
| 2026-04-21 13:39 | 46.66259 | 1.09533 | 35040 ft | 445 kts | 181° |
| 2026-04-21 13:39 | 46.60081 | 1.10207 | 35034 ft | 445 kts | 181° |
| 2026-04-21 13:40 | 46.53902 | 1.10887 | 35011 ft | 445 kts | 181° |
| 2026-04-21 13:40 | 46.47737 | 1.11562 | 35019 ft | 444 kts | 181° |
| 2026-04-21 13:41 | 46.41578 | 1.12228 | 35023 ft | 443 kts | 181° |
| 2026-04-21 13:41 | 46.35428 | 1.12894 | 35003 ft | 443 kts | 181° |
| 2026-04-21 13:42 | 46.29282 | 1.13560 | 34982 ft | 444 kts | 181° |
| 2026-04-21 13:42 | 46.23104 | 1.14235 | 34970 ft | 446 kts | 181° |
| 2026-04-21 13:43 | 46.16894 | 1.14902 | 34967 ft | 449 kts | 181° |
| 2026-04-21 13:43 | 46.13739 | 1.15238 | 34837 ft | 449 kts | 181° |
| 2026-04-21 13:43 | 46.10616 | 1.15574 | 33796 ft | 451 kts | 181° |
| 2026-04-21 13:44 | 46.07487 | 1.15911 | 32722 ft | 450 kts | 181° |
| 2026-04-21 13:44 | 46.04379 | 1.16245 | 31786 ft | 446 kts | 181° |
| 2026-04-21 13:44 | 46.01293 | 1.16579 | 30915 ft | 442 kts | 181° |
| 2026-04-21 13:44 | 45.98195 | 1.16917 | 30074 ft | 438 kts | 181° |
| 2026-04-21 13:45 | 45.95206 | 1.17245 | 29154 ft | 434 kts | 180° |
| 2026-04-21 13:45 | 45.92175 | 1.17576 | 28300 ft | 428 kts | 180° |
| 2026-04-21 13:45 | 45.89239 | 1.17893 | 27749 ft | 417 kts | 180° |
| 2026-04-21 13:45 | 45.86392 | 1.18203 | 27329 ft | 404 kts | 181° |
| 2026-04-21 13:46 | 45.83627 | 1.18505 | 26885 ft | 393 kts | 181° |
| 2026-04-21 13:46 | 45.80933 | 1.18795 | 26454 ft | 382 kts | 181° |
| 2026-04-21 13:46 | 45.78317 | 1.19074 | 26033 ft | 372 kts | 181° |
| 2026-04-21 13:46 | 45.75765 | 1.19344 | 25483 ft | 366 kts | 181° |
| 2026-04-21 13:47 | 45.73242 | 1.19606 | 25098 ft | 360 kts | 181° |
| 2026-04-21 13:47 | 45.70760 | 1.19866 | 24761 ft | 357 kts | 181° |
| 2026-04-21 13:47 | 45.68287 | 1.20122 | 24303 ft | 356 kts | 181° |
| 2026-04-21 13:47 | 45.65810 | 1.20379 | 23870 ft | 357 kts | 181° |
| 2026-04-21 13:48 | 45.63337 | 1.20640 | 23415 ft | 357 kts | 180° |
| 2026-04-21 13:48 | 45.60860 | 1.20904 | 22937 ft | 356 kts | 180° |
| 2026-04-21 13:48 | 45.58396 | 1.21166 | 22503 ft | 355 kts | 180° |
| 2026-04-21 13:48 | 45.55936 | 1.21426 | 22061 ft | 353 kts | 180° |
| 2026-04-21 13:49 | 45.53493 | 1.21682 | 21644 ft | 352 kts | 180° |
| 2026-04-21 13:49 | 45.51054 | 1.21935 | 21221 ft | 351 kts | 180° |
| 2026-04-21 13:49 | 45.48621 | 1.22191 | 20803 ft | 350 kts | 180° |
| 2026-04-21 13:49 | 45.46195 | 1.22447 | 20385 ft | 349 kts | 180° |
| 2026-04-21 13:50 | 45.43767 | 1.22705 | 19959 ft | 349 kts | 180° |
| 2026-04-21 13:50 | 45.41347 | 1.22964 | 19544 ft | 349 kts | 180° |
| 2026-04-21 13:50 | 45.38930 | 1.23220 | 19136 ft | 348 kts | 180° |
| 2026-04-21 13:50 | 45.36513 | 1.23471 | 18726 ft | 348 kts | 180° |
| 2026-04-21 13:51 | 45.34121 | 1.23320 | 18318 ft | 342 kts | 194° |
| 2026-04-21 13:51 | 45.31859 | 1.22428 | 17897 ft | 335 kts | 207° |
| 2026-04-21 13:51 | 45.29823 | 1.20915 | 17501 ft | 328 kts | 216° |
| 2026-04-21 13:51 | 45.27868 | 1.19263 | 17119 ft | 326 kts | 215° |
| 2026-04-21 13:52 | 45.25921 | 1.17632 | 16747 ft | 324 kts | 215° |
| 2026-04-21 13:52 | 45.23981 | 1.16014 | 16383 ft | 322 kts | 215° |
| 2026-04-21 13:52 | 45.22054 | 1.14410 | 16017 ft | 321 kts | 214° |
| 2026-04-21 13:52 | 45.20133 | 1.12810 | 15657 ft | 319 kts | 214° |
| 2026-04-21 13:53 | 45.18197 | 1.11196 | 15286 ft | 318 kts | 214° |
| 2026-04-21 13:53 | 45.16297 | 1.09610 | 14935 ft | 316 kts | 214° |
| 2026-04-21 13:53 | 45.14409 | 1.08035 | 14582 ft | 315 kts | 214° |
| 2026-04-21 13:53 | 45.12523 | 1.06465 | 14221 ft | 314 kts | 214° |
| 2026-04-21 13:54 | 45.10648 | 1.04905 | 13870 ft | 312 kts | 214° |
| 2026-04-21 13:54 | 45.08775 | 1.03344 | 13483 ft | 312 kts | 214° |
| 2026-04-21 13:54 | 45.06908 | 1.01795 | 13118 ft | 310 kts | 214° |
| 2026-04-21 13:54 | 45.05059 | 1.00262 | 12765 ft | 307 kts | 214° |
| 2026-04-21 13:55 | 45.03225 | 0.98740 | 12407 ft | 304 kts | 214° |
| 2026-04-21 13:55 | 45.01552 | 0.96970 | 12048 ft | 298 kts | 228° |
| 2026-04-21 13:55 | 45.00309 | 0.94675 | 11703 ft | 292 kts | 244° |
| 2026-04-21 13:55 | 44.99565 | 0.92042 | 11334 ft | 288 kts | 258° |
| 2026-04-21 13:56 | 44.99226 | 0.89267 | 10971 ft | 286 kts | 262° |
| 2026-04-21 13:56 | 44.98914 | 0.86495 | 10606 ft | 285 kts | 262° |
| 2026-04-21 13:56 | 44.98597 | 0.83734 | 10258 ft | 283 kts | 262° |
| 2026-04-21 13:56 | 44.98281 | 0.81010 | 9977 ft | 280 kts | 262° |
| 2026-04-21 13:57 | 44.97969 | 0.78305 | 9606 ft | 278 kts | 262° |
| 2026-04-21 13:57 | 44.97660 | 0.75611 | 9217 ft | 278 kts | 261° |
| 2026-04-21 13:57 | 44.97350 | 0.72926 | 8851 ft | 276 kts | 261° |
| 2026-04-21 13:57 | 44.97041 | 0.70256 | 8465 ft | 275 kts | 261° |
| 2026-04-21 13:58 | 44.96732 | 0.67592 | 8075 ft | 274 kts | 261° |
| 2026-04-21 13:58 | 44.96424 | 0.64950 | 7697 ft | 273 kts | 261° |
| 2026-04-21 13:58 | 44.96115 | 0.62309 | 7303 ft | 272 kts | 261° |
| 2026-04-21 13:58 | 44.95807 | 0.59673 | 6908 ft | 272 kts | 261° |
| 2026-04-21 13:59 | 44.95497 | 0.57043 | 6505 ft | 272 kts | 261° |
| 2026-04-21 13:59 | 44.95189 | 0.54415 | 6129 ft | 270 kts | 261° |
| 2026-04-21 13:59 | 44.94880 | 0.51794 | 5686 ft | 271 kts | 261° |
| 2026-04-21 13:59 | 44.94572 | 0.49171 | 5257 ft | 270 kts | 262° |
| 2026-04-21 14:00 | 44.94264 | 0.46558 | 4860 ft | 269 kts | 262° |
| 2026-04-21 14:00 | 44.93964 | 0.44019 | 4782 ft | 255 kts | 261° |
| 2026-04-21 14:00 | 44.93677 | 0.41612 | 4680 ft | 242 kts | 261° |
| 2026-04-21 14:00 | 44.93398 | 0.39294 | 4573 ft | 231 kts | 261° |
| 2026-04-21 14:01 | 44.93135 | 0.37102 | 4481 ft | 229 kts | 261° |
| 2026-04-21 14:01 | 44.92867 | 0.34862 | 4377 ft | 228 kts | 261° |
| 2026-04-21 14:01 | 44.92612 | 0.32711 | 4276 ft | 217 kts | 261° |
| 2026-04-21 14:01 | 44.92195 | 0.30721 | 4182 ft | 209 kts | 238° |
| 2026-04-21 14:02 | 44.91582 | 0.29726 | 4160 ft | 198 kts | 218° |
| 2026-04-21 14:02 | 44.89909 | 0.28867 | 3769 ft | 195 kts | 181° |
| 2026-04-21 14:02 | 44.88549 | 0.28745 | 3446 ft | 197 kts | 180° |
| 2026-04-21 14:03 | 44.85753 | 0.28467 | 2843 ft | 203 kts | 180° |
| 2026-04-21 14:03 | 44.84434 | 0.28910 | 2588 ft | 192 kts | 141° |
| 2026-04-21 14:03 | 44.83676 | 0.30280 | 2504 ft | 167 kts | 105° |
| 2026-04-21 14:03 | 44.83517 | 0.31793 | 2510 ft | 152 kts | 93° |
| 2026-04-21 14:04 | 44.83439 | 0.33218 | 2523 ft | 144 kts | 93° |
| 2026-04-21 14:04 | 44.83364 | 0.34627 | 2520 ft | 145 kts | 92° |
| 2026-04-21 14:04 | 44.83290 | 0.36053 | 2513 ft | 145 kts | 91° |
| 2026-04-21 14:04 | 44.83216 | 0.37499 | 2390 ft | 150 kts | 92° |
| 2026-04-21 14:05 | 44.83139 | 0.38948 | 2113 ft | 147 kts | 92° |
| 2026-04-21 14:05 | 44.83063 | 0.40393 | 1887 ft | 147 kts | 92° |
| 2026-04-21 14:05 | 44.82987 | 0.41819 | 1651 ft | 145 kts | 91° |
| 2026-04-21 14:05 | 44.82910 | 0.43236 | 1423 ft | 146 kts | 92° |
| 2026-04-21 14:06 | 44.82832 | 0.44652 | 1200 ft | 145 kts | 93° |
| 2026-04-21 14:06 | 44.82755 | 0.46080 | 973 ft | 146 kts | 92° |
| 2026-04-21 14:06 | 44.82705 | 0.47046 | 819 ft | 147 kts | 94° |
| 2026-04-21 14:06 | 44.82632 | 0.48444 | 603 ft | 145 kts | 93° |
| 2026-04-21 14:07 | 44.82615 | 0.48761 | 585 ft | 143 kts | 94° |
| 2026-04-21 14:07 | 44.82543 | 0.50283 | 334 ft | 163 kts | 92° |
| 2026-04-21 14:07 | 44.82455 | 0.51810 | 181 ft | 144 kts | 93° |
| 2026-04-21 14:08 | 44.82398 | 0.52857 | 176 ft | 53 kts | 95° |
| 2026-04-21 14:08 | 44.82383 | 0.53164 | 177 ft | 24 kts | 96° |
| 2026-04-21 14:08 | 44.82410 | 0.53236 | 177 ft | 2 kts | 290° |
| 2026-04-21 14:08 | 44.82404 | 0.53200 | 177 ft | 7 kts | 259° |
| 2026-04-21 14:09 | 44.82392 | 0.53108 | 177 ft | 12 kts | 262° |
| 2026-04-21 14:09 | 44.82390 | 0.53029 | 176 ft | 14 kts | 273° |
| 2026-04-21 14:09 | 44.82393 | 0.52958 | 176 ft | 15 kts | 274° |
| 2026-04-21 14:09 | 44.82402 | 0.52800 | 176 ft | 19 kts | 274° |
| 2026-04-21 14:10 | 44.82411 | 0.52608 | 177 ft | 20 kts | 275° |
| 2026-04-21 14:10 | 44.82423 | 0.52421 | 178 ft | 19 kts | 274° |
| 2026-04-21 14:10 | 44.82430 | 0.52238 | 178 ft | 19 kts | 273° |
| 2026-04-21 14:10 | 44.82434 | 0.52071 | 178 ft | 14 kts | 248° |
| 2026-04-21 14:11 | 44.82345 | 0.52042 | 177 ft | 14 kts | 184° |
| 2026-04-21 14:11 | 44.82285 | 0.52012 | 177 ft | 8 kts | 250° |
| 2026-04-21 14:11 | 44.82288 | 0.51915 | 177 ft | 13 kts | 275° |
| 2026-04-21 14:11 | 44.82295 | 0.51788 | 177 ft | 13 kts | 274° |
| 2026-04-21 14:12 | 44.82301 | 0.51662 | 177 ft | 13 kts | 274° |
| 2026-04-21 14:12 | 44.82289 | 0.51582 | 177 ft | 7 kts | 196° |
| 2026-04-21 14:12 | 44.82265 | 0.51574 | 177 ft | 1 kts | 239° |
| 2026-04-21 14:12 | 44.82266 | 0.51570 | 177 ft | 0 kts | 274° |
| 2026-04-21 14:13 | 44.82276 | 0.51551 | 177 ft | 0 kts | 310° |